Time;durP1;ratioP1;P1;durP2;ratioP2;P2;SDS_P1;SDS_P2;PMS_P1;PMS_P2;Temp;Humidity;BMP_temperature;BMP_pressure;BME280_temperature;BME280_humidity;BME280_pressure;Samples;Min_cycle;Max_cycle;Signal;HPM_P1;HPM_P2
2022/11/06 00:01:32;;;;;;;19.08;10.32;;;10.70;81.60;;;;;;5046412;28;20394;-71
2022/11/06 00:03:57;;;;;;;30.58;16.90;;;10.70;81.70;;;;;;5046798;28;20463;-71
2022/11/06 00:09:11;;;;;;;25.90;13.88;;;10.60;81.70;;;;;;5043294;28;20047;-69
2022/11/06 00:11:38;;;;;;;18.45;10.20;;;10.60;81.70;;;;;;5043170;28;20055;-69
2022/11/06 00:14:04;;;;;;;13.95;7.50;;;10.60;81.70;;;;;;5047118;28;20031;-69
2022/11/06 00:16:30;;;;;;;9.43;4.90;;;10.60;81.70;;;;;;5047152;28;20380;-70
2022/11/06 00:18:58;;;;;;;9.02;5.50;;;10.60;81.80;;;;;;5044518;28;20032;-71
2022/11/06 00:21:26;;;;;;;9.63;5.72;;;10.60;81.80;;;;;;5046476;28;20382;-70
2022/11/06 00:23:53;;;;;;;9.65;5.93;;;10.60;81.90;;;;;;5046217;28;20087;-70
2022/11/06 00:26:21;;;;;;;7.93;5.43;;;10.60;82.00;;;;;;5051187;28;20025;-70
2022/11/06 00:28:47;;;;;;;13.18;5.90;;;10.60;82.00;;;;;;5050822;28;20048;-71
2022/11/06 00:31:16;;;;;;;9.77;5.25;;;10.60;82.00;;;;;;5049318;28;20510;-71
2022/11/06 00:33:43;;;;;;;7.55;4.55;;;10.60;82.00;;;;;;5049436;28;20021;-71
2022/11/06 00:36:14;;;;;;;12.07;5.15;;;10.70;82.60;;;;;;5048181;28;20024;-70
2022/11/06 00:38:40;;;;;;;8.10;4.82;;;10.70;81.90;;;;;;5047526;28;20028;-71
2022/11/06 00:41:08;;;;;;;10.95;5.68;;;10.70;81.90;;;;;;5049705;28;20647;-70
2022/11/06 00:43:34;;;;;;;8.93;4.72;;;10.70;81.90;;;;;;5050557;28;20514;-69
2022/11/06 00:46:09;;;;;;;7.57;4.10;;;10.70;81.90;;;;;;5049486;28;20017;-70
2022/11/06 00:48:36;;;;;;;7.55;3.88;;;10.70;81.80;;;;;;5049188;28;20051;-71
2022/11/06 00:51:26;;;;;;;7.90;3.90;;;10.70;81.80;;;;;;5046426;28;20078;-71
2022/11/06 00:53:54;;;;;;;6.13;4.35;;;10.80;81.70;;;;;;5049699;28;20044;-70
2022/11/06 00:56:20;;;;;;;8.80;4.45;;;10.80;81.70;;;;;;5047109;28;20476;-70
2022/11/06 00:58:46;;;;;;;6.95;4.18;;;10.80;81.60;;;;;;5050239;28;20136;-71
2022/11/06 01:01:13;;;;;;;8.25;4.50;;;10.80;81.60;;;;;;5050356;28;20047;-71
2022/11/06 01:03:40;;;;;;;8.10;4.90;;;10.80;81.60;;;;;;5048355;28;20040;-70
2022/11/06 01:06:08;;;;;;;9.77;3.90;;;10.80;81.70;;;;;;5049589;28;20399;-71
2022/11/06 01:08:34;;;;;;;9.80;5.25;;;10.70;81.60;;;;;;5048312;28;20040;-71
2022/11/06 01:11:08;;;;;;;7.60;3.67;;;10.70;81.60;;;;;;5048642;28;20097;-71
2022/11/06 01:13:34;;;;;;;9.88;4.63;;;10.70;81.70;;;;;;5048360;28;20060;-71
2022/11/06 01:16:00;;;;;;;8.30;4.50;;;10.70;81.70;;;;;;5044770;28;20057;-71
2022/11/06 01:18:26;;;;;;;7.78;4.45;;;10.70;81.80;;;;;;5050462;28;20032;-71
2022/11/06 01:20:51;;;;;;;12.05;5.00;;;10.70;81.80;;;;;;5048549;28;20037;-71
2022/11/06 01:23:17;;;;;;;10.75;4.43;;;10.60;81.80;;;;;;5050441;28;20041;-71
2022/11/06 01:25:42;;;;;;;7.57;4.70;;;10.60;81.90;;;;;;5047466;28;20139;-72
2022/11/06 01:28:08;;;;;;;11.73;5.22;;;10.60;81.80;;;;;;5048446;28;20373;-72
2022/11/06 01:30:37;;;;;;;8.38;4.43;;;10.60;81.90;;;;;;5050320;28;20546;-72
2022/11/06 01:33:02;;;;;;;7.32;4.28;;;10.60;82.00;;;;;;5048611;28;20395;-71
2022/11/06 01:35:28;;;;;;;8.85;3.92;;;10.60;82.00;;;;;;5047335;28;20021;-70
2022/11/06 01:37:53;;;;;;;6.22;3.92;;;10.60;82.00;;;;;;5047076;28;20569;-70
2022/11/06 01:40:19;;;;;;;6.32;3.58;;;10.60;82.00;;;;;;5047600;28;20021;-71
2022/11/06 01:42:45;;;;;;;8.90;3.83;;;10.60;82.00;;;;;;5048261;28;20021;-70
2022/11/06 01:45:25;;;;;;;5.05;3.55;;;10.60;82.00;;;;;;5049019;28;20036;-70
2022/11/06 01:47:50;;;;;;;8.90;3.78;;;10.70;82.00;;;;;;5046315;28;20031;-70
2022/11/06 01:50:17;;;;;;;7.85;4.00;;;10.60;81.90;;;;;;5049329;28;20120;-70
2022/11/06 01:52:44;;;;;;;6.38;3.80;;;10.60;81.80;;;;;;5049361;28;20021;-70
2022/11/06 01:55:24;;;;;;;7.95;3.95;;;10.60;81.80;;;;;;5047105;28;20032;-69
2022/11/06 01:57:51;;;;;;;5.80;3.92;;;10.60;81.80;;;;;;5047338;28;20017;-70
2022/11/06 02:00:18;;;;;;;6.07;3.45;;;10.60;81.90;;;;;;5048652;28;20032;-69
2022/11/06 02:02:45;;;;;;;7.75;3.72;;;10.60;81.90;;;;;;5044521;28;20022;-70
2022/11/06 02:05:10;;;;;;;8.65;3.90;;;10.60;81.80;;;;;;5048759;28;20078;-70
2022/11/06 02:07:38;;;;;;;5.82;3.55;;;10.60;81.80;;;;;;5044033;28;20813;-70
2022/11/06 02:10:04;;;;;;;8.35;4.28;;;10.60;81.80;;;;;;5040371;28;20029;-69
2022/11/06 02:12:36;;;;;;;8.57;3.90;;;10.60;81.80;;;;;;5036699;28;20040;-70
2022/11/06 02:15:16;;;;;;;8.25;3.67;;;10.50;81.90;;;;;;5050521;28;20029;-69
2022/11/06 02:18:04;;;;;;;6.55;3.53;;;10.50;82.00;;;;;;5045518;28;20474;-70
2022/11/06 02:21:04;;;;;;;8.25;3.53;;;10.60;82.00;;;;;;5030537;28;20188;-71
2022/11/06 02:23:57;;;;;;;5.78;3.35;;;10.60;82.00;;;;;;5024150;28;20057;-71
2022/11/06 02:26:49;;;;;;;9.27;3.65;;;10.60;82.00;;;;;;5030817;28;20029;-71
2022/11/06 02:29:21;;;;;;;8.30;3.40;;;10.50;81.90;;;;;;5032127;28;20040;-70
2022/11/06 02:31:51;;;;;;;7.90;3.20;;;10.50;82.00;;;;;;5032196;28;20143;-71
2022/11/06 02:34:19;;;;;;;7.70;3.50;;;10.60;82.00;;;;;;5042353;28;20037;-70
2022/11/06 02:36:56;;;;;;;8.95;3.47;;;10.60;82.00;;;;;;5047996;28;20032;-70
2022/11/06 02:39:24;;;;;;;6.95;2.85;;;10.60;82.00;;;;;;5042787;28;20032;-70
2022/11/06 02:41:52;;;;;;;7.13;2.92;;;10.70;82.00;;;;;;5048084;28;20025;-71
2022/11/06 02:44:21;;;;;;;6.05;3.20;;;10.60;81.80;;;;;;5032900;28;20511;-70
2022/11/06 02:46:53;;;;;;;5.88;3.00;;;10.60;81.90;;;;;;5028910;28;20444;-70
2022/11/06 02:49:35;;;;;;;4.90;2.67;;;10.60;81.80;;;;;;5040387;28;20110;-70
2022/11/06 02:52:10;;;;;;;8.07;3.03;;;10.60;81.80;;;;;;5047458;28;20026;-69
2022/11/06 02:54:39;;;;;;;7.30;2.80;;;10.70;81.80;;;;;;5043393;28;20033;-70
2022/11/06 02:57:09;;;;;;;6.97;3.28;;;10.70;81.80;;;;;;5034151;28;20029;-70
2022/11/06 02:59:40;;;;;;;8.43;3.58;;;10.70;81.70;;;;;;5034624;28;20599;-70
2022/11/06 03:02:09;;;;;;;10.48;3.88;;;10.70;81.70;;;;;;5030905;28;20057;-70
2022/11/06 03:04:50;;;;;;;6.55;3.10;;;10.70;81.70;;;;;;5037450;28;20041;-71
2022/11/06 03:07:33;;;;;;;7.25;3.00;;;10.60;81.70;;;;;;5045596;28;20508;-72
2022/11/06 03:09:58;;;;;;;7.40;2.80;;;10.70;81.70;;;;;;5039958;28;20033;-71
2022/11/06 03:12:28;;;;;;;5.97;2.97;;;10.70;81.70;;;;;;5043848;28;20018;-71
2022/11/06 03:14:59;;;;;;;8.77;3.00;;;10.70;81.70;;;;;;5037423;28;20021;-71
2022/11/06 03:17:47;;;;;;;6.35;2.90;;;10.70;81.70;;;;;;5046621;28;20388;-72
2022/11/06 03:20:28;;;;;;;6.75;3.05;;;10.70;81.70;;;;;;5046157;28;20025;-72
2022/11/06 03:23:09;;;;;;;5.90;3.03;;;10.70;81.60;;;;;;5045665;28;20051;-73
2022/11/06 03:25:45;;;;;;;5.50;2.75;;;10.70;81.60;;;;;;5035651;28;20049;-71
2022/11/06 03:28:28;;;;;;;7.47;2.45;;;10.70;81.70;;;;;;5030466;28;20022;-72
2022/11/06 03:30:58;;;;;;;6.97;3.22;;;10.70;81.60;;;;;;5029355;28;20030;-71
2022/11/06 03:33:37;;;;;;;7.55;3.00;;;10.70;81.60;;;;;;5041067;28;20033;-71
2022/11/06 03:36:11;;;;;;;6.00;2.50;;;10.70;81.60;;;;;;5048353;28;20094;-71
2022/11/06 03:38:42;;;;;;;4.78;2.35;;;10.80;81.60;;;;;;5031357;28;20080;-71
2022/11/06 03:41:15;;;;;;;7.72;2.70;;;10.80;81.50;;;;;;5031669;28;20021;-71
2022/11/06 03:43:44;;;;;;;6.95;2.80;;;10.80;81.40;;;;;;5032786;28;20017;-71
2022/11/06 03:46:15;;;;;;;6.88;2.83;;;10.80;81.40;;;;;;5038681;28;20065;-71
2022/11/06 03:48:46;;;;;;;5.30;2.65;;;10.80;81.40;;;;;;5048597;28;20035;-70
2022/11/06 03:51:28;;;;;;;6.30;2.80;;;10.80;81.50;;;;;;5037981;28;20031;-70
2022/11/06 03:54:10;;;;;;;6.55;3.08;;;10.70;81.50;;;;;;5044905;28;20345;-70
2022/11/06 03:56:48;;;;;;;7.30;2.60;;;10.70;81.60;;;;;;5045065;28;20403;-70
2022/11/06 03:59:17;;;;;;;4.30;2.30;;;10.80;81.60;;;;;;5049072;28;20028;-70
2022/11/06 04:01:45;;;;;;;5.63;2.22;;;10.80;81.50;;;;;;5041144;28;20022;-71
2022/11/06 04:04:17;;;;;;;9.32;2.65;;;10.90;81.50;;;;;;5047463;28;20028;-70
2022/11/06 04:06:45;;;;;;;;;;;10.80;81.40;;;;;;5034366;28;20033;-70
2022/11/06 04:14:48;;;;;;;6.43;2.47;;;10.90;81.40;;;;;;5039050;28;20048;-71
2022/11/06 04:17:15;;;;;;;4.32;2.08;;;10.80;81.50;;;;;;5050921;28;20029;-71
2022/11/06 04:19:48;;;;;;;7.95;2.67;;;10.90;81.50;;;;;;5052396;28;20086;-70
2022/11/06 04:23:04;;;;;;;6.25;2.83;;;10.90;81.50;;;;;;5051065;28;20028;-71
2022/11/06 04:28:55;;;;;;;5.85;2.65;;;10.90;81.50;;;;;;5029905;28;20072;-70
2022/11/06 04:32:00;;;;;;;5.63;2.58;;;10.80;81.60;;;;;;5045588;28;20711;-71
2022/11/06 04:34:51;;;;;;;4.63;2.40;;;10.80;81.60;;;;;;5047311;28;20049;-71
2022/11/06 04:37:21;;;;;;;7.85;2.80;;;10.80;81.60;;;;;;5039699;28;20025;-72
2022/11/06 04:40:14;;;;;;;5.13;2.40;;;10.80;81.70;;;;;;5050091;28;20029;-71
2022/11/06 04:43:00;;;;;;;5.50;2.50;;;10.90;81.80;;;;;;5041866;28;20033;-70
2022/11/06 04:45:31;;;;;;;5.97;2.85;;;10.90;81.70;;;;;;5031015;28;20021;-70
2022/11/06 04:47:58;;;;;;;6.82;2.40;;;10.90;81.70;;;;;;5046781;28;20067;-71
2022/11/06 04:50:26;;;;;;;8.20;2.53;;;10.90;81.70;;;;;;5053300;28;20085;-70
2022/11/06 04:52:52;;;;;;;6.38;2.72;;;11.00;81.70;;;;;;5045068;28;20068;-70
2022/11/06 04:55:21;;;;;;;4.88;2.58;;;10.90;81.70;;;;;;5048489;28;20036;-70
2022/11/06 04:57:46;;;;;;;7.75;2.80;;;11.00;81.80;;;;;;5042265;28;20687;-70
2022/11/06 05:00:13;;;;;;;7.05;2.47;;;11.00;81.70;;;;;;5030862;28;20026;-69
2022/11/06 05:02:39;;;;;;;5.35;2.30;;;11.00;81.70;;;;;;5034917;28;20045;-71
2022/11/06 05:05:06;;;;;;;7.80;2.75;;;11.00;81.80;;;;;;5033787;28;20037;-71
2022/11/06 05:07:31;;;;;;;10.75;3.05;;;11.00;81.70;;;;;;5044665;28;20356;-70
2022/11/06 05:09:57;;;;;;;5.07;2.60;;;11.00;81.80;;;;;;5034195;28;20036;-71
2022/11/06 05:12:22;;;;;;;8.25;3.30;;;11.00;81.80;;;;;;5050186;28;20025;-71
2022/11/06 05:14:48;;;;;;;7.07;2.45;;;10.90;81.80;;;;;;5050663;28;20036;-70
2022/11/06 05:17:14;;;;;;;6.10;2.47;;;11.00;81.80;;;;;;5042029;28;20028;-70
2022/11/06 05:19:39;;;;;;;5.45;2.20;;;10.90;81.80;;;;;;5047188;28;20056;-70
2022/11/06 05:24:49;;;;;;;6.45;2.80;;;11.00;82.60;;;;;;5033817;28;20123;-69
2022/11/06 05:27:15;;;;;;;4.97;2.35;;;10.90;81.90;;;;;;5038461;28;20041;-71
2022/11/06 05:29:40;;;;;;;6.20;2.40;;;10.90;81.90;;;;;;5036823;28;20439;-70
2022/11/06 05:32:06;;;;;;;5.65;2.08;;;10.90;81.90;;;;;;5036095;28;20119;-71
2022/11/06 05:34:32;;;;;;;7.22;2.30;;;11.00;81.90;;;;;;5044071;28;20506;-71
2022/11/06 05:36:57;;;;;;;6.22;2.50;;;11.00;82.00;;;;;;5050201;28;20087;-71
2022/11/06 05:39:23;;;;;;;6.32;3.08;;;11.00;81.90;;;;;;5047862;28;20052;-71
2022/11/06 05:41:49;;;;;;;6.28;2.80;;;11.00;81.90;;;;;;5051945;28;20024;-70
2022/11/06 05:44:15;;;;;;;4.82;2.20;;;11.00;81.90;;;;;;5041084;28;20055;-70
2022/11/06 05:46:40;;;;;;;4.68;2.05;;;11.00;81.90;;;;;;5032600;28;20032;-69
2022/11/06 05:49:07;;;;;;;5.95;2.20;;;11.10;81.90;;;;;;5033356;28;20108;-70
2022/11/06 05:51:32;;;;;;;6.82;2.53;;;11.10;81.80;;;;;;5032566;28;20104;-69
2022/11/06 05:53:58;;;;;;;5.97;2.00;;;11.10;81.70;;;;;;5032988;28;20057;-69
2022/11/06 05:56:23;;;;;;;7.18;2.33;;;11.20;81.70;;;;;;5032870;28;20033;-68
2022/11/06 05:58:49;;;;;;;7.88;2.67;;;11.20;81.60;;;;;;5032188;28;20024;-70
2022/11/06 06:01:15;;;;;;;6.10;2.60;;;11.10;81.70;;;;;;5039773;28;20032;-70
2022/11/06 06:03:40;;;;;;;4.32;2.42;;;11.10;81.70;;;;;;5032034;28;20028;-69
2022/11/06 06:06:06;;;;;;;5.78;2.75;;;11.10;81.70;;;;;;5035535;28;20040;-69
2022/11/06 06:08:31;;;;;;;3.72;2.35;;;11.10;81.70;;;;;;5034215;28;20556;-70
2022/11/06 06:10:57;;;;;;;6.53;2.53;;;11.10;81.80;;;;;;5034326;28;20104;-69
2022/11/06 06:13:22;;;;;;;5.05;2.40;;;11.10;81.70;;;;;;5044455;28;20032;-69
2022/11/06 06:15:48;;;;;;;6.63;2.67;;;11.10;81.80;;;;;;5046123;28;20510;-69
2022/11/06 06:18:13;;;;;;;7.68;2.70;;;11.10;81.80;;;;;;5031053;28;20037;-69
2022/11/06 06:20:39;;;;;;;4.55;2.53;;;11.10;81.80;;;;;;5040236;28;20057;-69
2022/11/06 06:23:05;;;;;;;6.93;2.20;;;11.10;81.80;;;;;;5048124;28;20021;-69
2022/11/06 06:25:31;;;;;;;6.38;2.42;;;11.10;81.80;;;;;;5047907;28;20025;-69
2022/11/06 06:27:57;;;;;;;7.13;2.70;;;11.20;81.90;;;;;;5044258;28;20036;-70
2022/11/06 06:30:24;;;;;;;5.47;2.42;;;11.10;81.80;;;;;;5048171;28;20498;-69
2022/11/06 06:32:50;;;;;;;6.45;2.30;;;11.10;81.80;;;;;;5050990;28;20029;-70
2022/11/06 06:35:19;;;;;;;3.72;2.03;;;11.10;81.80;;;;;;5049354;28;20037;-70
2022/11/06 06:37:54;;;;;;;3.83;2.15;;;11.10;81.80;;;;;;5050311;28;20029;-69
2022/11/06 06:40:21;;;;;;;5.63;2.55;;;11.10;81.80;;;;;;5048423;28;20029;-70
2022/11/06 06:42:47;;;;;;;5.40;2.58;;;11.10;81.80;;;;;;5050302;28;20025;-70
2022/11/06 06:45:13;;;;;;;5.28;2.10;;;11.10;81.80;;;;;;5050945;28;20028;-70
2022/11/06 06:47:38;;;;;;;4.75;2.35;;;11.10;81.80;;;;;;5031469;28;20037;-71
2022/11/06 06:50:05;;;;;;;3.90;2.08;;;11.10;81.70;;;;;;5041987;28;20411;-71
2022/11/06 06:52:30;;;;;;;6.22;2.40;;;11.10;81.80;;;;;;5047414;28;20033;-70
2022/11/06 06:54:55;;;;;;;5.35;2.10;;;11.10;81.80;;;;;;5050153;28;20104;-71
2022/11/06 06:57:21;;;;;;;8.10;2.95;;;11.10;81.80;;;;;;5046504;28;20085;-71
2022/11/06 06:59:47;;;;;;;6.20;3.50;;;11.10;82.00;;;;;;5048124;28;20021;-69
2022/11/06 07:02:13;;;;;;;7.43;2.78;;;11.10;82.00;;;;;;5046399;28;20036;-70
2022/11/06 07:04:38;;;;;;;6.07;3.00;;;11.10;81.90;;;;;;5049149;28;20029;-70
2022/11/06 07:07:04;;;;;;;6.78;2.58;;;11.20;81.80;;;;;;5038658;28;20423;-71
2022/11/06 07:09:30;;;;;;;9.73;3.88;;;11.10;81.70;;;;;;5030146;28;20037;-71
2022/11/06 07:11:56;;;;;;;6.80;2.70;;;11.10;81.60;;;;;;5027810;28;20029;-70
2022/11/06 07:14:22;;;;;;;6.85;3.35;;;11.20;81.70;;;;;;5040327;28;20365;-70
2022/11/06 07:16:47;;;;;;;8.05;3.65;;;11.20;81.70;;;;;;5043390;28;20091;-70
2022/11/06 07:19:13;;;;;;;4.70;2.35;;;11.20;81.70;;;;;;5030383;28;20033;-70
2022/11/06 07:21:39;;;;;;;7.38;2.50;;;11.20;81.60;;;;;;5029606;28;20067;-71
2022/11/06 07:24:05;;;;;;;5.03;2.15;;;11.20;81.60;;;;;;5047211;28;20112;-70
2022/11/06 07:26:30;;;;;;;7.63;2.90;;;11.20;81.50;;;;;;5035398;28;20018;-70
2022/11/06 07:28:56;;;;;;;6.93;2.67;;;11.30;81.40;;;;;;5047889;28;20057;-69
2022/11/06 07:31:22;;;;;;;5.90;2.60;;;11.30;81.30;;;;;;5048861;28;20751;-69
2022/11/06 07:33:47;;;;;;;5.40;2.35;;;11.30;81.30;;;;;;5035201;28;20033;-70
2022/11/06 07:36:13;;;;;;;6.03;2.65;;;11.30;81.20;;;;;;5030758;28;20029;-70
2022/11/06 07:38:41;;;;;;;7.30;2.50;;;11.40;81.20;;;;;;5034699;28;20082;-70
2022/11/06 07:41:10;;;;;;;3.72;2.20;;;11.40;81.20;;;;;;5045840;28;20025;-70
2022/11/06 07:43:36;;;;;;;5.15;2.10;;;11.40;81.10;;;;;;5041731;28;20025;-70
2022/11/06 07:46:06;;;;;;;9.25;2.35;;;11.40;81.00;;;;;;5045296;28;20029;-72
2022/11/06 07:48:32;;;;;;;3.83;1.80;;;11.50;80.90;;;;;;5044559;28;20101;-71
2022/11/06 07:51:01;;;;;;;6.88;2.25;;;11.60;80.80;;;;;;5049326;28;20502;-72
2022/11/06 07:53:27;;;;;;;4.22;2.10;;;11.60;80.70;;;;;;5047496;28;20036;-72
2022/11/06 07:55:54;;;;;;;5.28;2.47;;;11.60;80.60;;;;;;5045969;28;20037;-72
2022/11/06 07:58:21;;;;;;;4.55;2.20;;;11.60;80.50;;;;;;5032567;28;20112;-72
2022/11/06 08:00:53;;;;;;;6.20;2.92;;;11.70;80.50;;;;;;5040723;28;20112;-72
2022/11/06 08:03:19;;;;;;;5.32;2.28;;;11.70;80.30;;;;;;5051852;28;20463;-72
2022/11/06 08:05:45;;;;;;;5.43;2.20;;;11.70;80.30;;;;;;5050746;28;20017;-72
2022/11/06 08:08:11;;;;;;;6.35;2.30;;;11.70;80.30;;;;;;5033883;28;20030;-71
2022/11/06 08:10:39;;;;;;;6.32;2.35;;;11.70;80.30;;;;;;5032271;28;20040;-72
2022/11/06 08:13:06;;;;;;;4.95;2.10;;;11.70;80.20;;;;;;5050962;28;20050;-71
2022/11/06 08:15:32;;;;;;;6.90;2.45;;;11.70;80.30;;;;;;5050844;28;20100;-70
2022/11/06 08:17:58;;;;;;;6.78;2.35;;;11.80;80.30;;;;;;5031415;28;20052;-71
2022/11/06 08:20:24;;;;;;;6.85;2.40;;;11.80;80.20;;;;;;5048671;28;20017;-70
2022/11/06 08:22:49;;;;;;;5.95;2.40;;;11.80;79.90;;;;;;5049344;28;20035;-69
2022/11/06 08:25:15;;;;;;;5.82;2.47;;;11.80;80.00;;;;;;5044088;28;20071;-69
2022/11/06 08:27:41;;;;;;;6.93;2.65;;;11.90;80.00;;;;;;5048859;28;20037;-71
2022/11/06 08:30:07;;;;;;;4.32;2.05;;;12.00;79.90;;;;;;5046775;28;20025;-69
2022/11/06 08:32:32;;;;;;;5.25;2.20;;;12.00;79.80;;;;;;5044379;28;20025;-68
2022/11/06 08:34:58;;;;;;;7.22;2.70;;;12.00;79.80;;;;;;5034642;28;20025;-69
2022/11/06 08:37:23;;;;;;;6.55;2.42;;;12.10;79.60;;;;;;5046132;28;20036;-70
2022/11/06 08:39:49;;;;;;;5.95;2.30;;;12.10;79.60;;;;;;5044269;28;20471;-68
2022/11/06 08:42:15;;;;;;;5.93;2.08;;;12.10;79.50;;;;;;5044783;28;20045;-70
2022/11/06 08:44:41;;;;;;;4.57;2.20;;;12.20;79.40;;;;;;5037089;28;20512;-70
2022/11/06 08:47:07;;;;;;;5.00;1.98;;;12.20;79.30;;;;;;5047150;28;20029;-70
2022/11/06 08:49:33;;;;;;;3.28;1.77;;;12.20;79.20;;;;;;5049892;28;20029;-70
2022/11/06 08:51:58;;;;;;;4.43;1.60;;;12.20;79.30;;;;;;5049697;28;20025;-69
2022/11/06 08:54:24;;;;;;;6.75;2.15;;;12.30;79.20;;;;;;5053129;28;20095;-70
2022/11/06 08:56:50;;;;;;;3.80;2.20;;;12.30;79.10;;;;;;5050437;28;20032;-70
2022/11/06 08:59:15;;;;;;;6.28;2.38;;;12.30;78.90;;;;;;5048235;28;20061;-70
2022/11/06 09:01:41;;;;;;;4.18;2.28;;;12.30;78.80;;;;;;5052177;28;20425;-70
2022/11/06 09:04:06;;;;;;;5.55;2.05;;;12.30;78.80;;;;;;5048548;28;20027;-69
2022/11/06 09:06:32;;;;;;;5.35;2.13;;;12.30;78.60;;;;;;5050225;28;20025;-70
2022/11/06 09:08:58;;;;;;;4.47;2.15;;;12.30;78.70;;;;;;5049391;28;20044;-70
2022/11/06 09:11:24;;;;;;;5.22;1.92;;;12.30;78.50;;;;;;5048251;28;20021;-70
2022/11/06 09:13:50;;;;;;;4.63;2.20;;;12.20;78.60;;;;;;5048257;28;20033;-69
2022/11/06 09:16:15;;;;;;;5.25;2.10;;;12.30;78.70;;;;;;5049108;28;20025;-70
2022/11/06 09:18:41;;;;;;;3.70;1.63;;;12.20;78.60;;;;;;5047958;28;20129;-70
2022/11/06 09:21:07;;;;;;;4.35;2.00;;;12.20;78.80;;;;;;5049851;28;20020;-70
2022/11/06 09:23:33;;;;;;;6.50;2.05;;;12.30;78.90;;;;;;5049471;28;20021;-70
2022/11/06 09:25:59;;;;;;;4.97;2.10;;;12.30;78.80;;;;;;5052760;28;20026;-71
2022/11/06 09:28:24;;;;;;;5.57;2.38;;;12.40;78.70;;;;;;5046119;28;20031;-70
2022/11/06 09:30:50;;;;;;;8.82;2.65;;;12.40;78.50;;;;;;5047235;28;20116;-70
2022/11/06 09:33:16;;;;;;;4.93;2.00;;;12.40;78.40;;;;;;5041455;28;20033;-70
2022/11/06 09:35:41;;;;;;;5.18;1.73;;;12.50;78.40;;;;;;5045457;28;20548;-70
2022/11/06 09:38:10;;;;;;;2.95;1.70;;;12.60;78.40;;;;;;5052015;28;20041;-70
2022/11/06 09:40:37;;;;;;;4.18;1.80;;;12.70;78.30;;;;;;5047409;28;20475;-70
2022/11/06 09:43:28;;;;;;;4.97;2.20;;;12.70;78.10;;;;;;5046125;28;20025;-71
2022/11/06 09:45:54;;;;;;;4.03;2.28;;;12.70;77.80;;;;;;5049129;28;20036;-71
2022/11/06 09:48:27;;;;;;;4.55;2.10;;;12.80;77.70;;;;;;5050187;28;20100;-70
2022/11/06 09:51:00;;;;;;;6.20;2.10;;;12.80;77.50;;;;;;5043266;28;20043;-71
2022/11/06 09:53:36;;;;;;;5.40;2.08;;;12.90;77.40;;;;;;5046144;28;20032;-71
2022/11/06 09:56:04;;;;;;;11.05;2.85;;;12.90;77.30;;;;;;5050798;28;20055;-70
2022/11/06 09:58:37;;;;;;;7.88;3.00;;;13.00;77.10;;;;;;5050076;28;20021;-70
2022/11/06 10:01:15;;;;;;;7.28;2.90;;;12.90;76.90;;;;;;5045792;28;20032;-71
2022/11/06 10:03:47;;;;;;;6.80;2.70;;;13.00;77.00;;;;;;5046012;28;20378;-71
2022/11/06 10:06:13;;;;;;;;;;;13.00;76.90;;;;;;5048559;28;20029;-71
2022/11/06 10:08:42;;;;;;;4.97;2.60;;;13.10;76.90;;;;;;5049017;28;20469;-71
2022/11/06 10:11:14;;;;;;;5.80;2.20;;;13.10;76.80;;;;;;5050445;28;20031;-71
2022/11/06 10:13:45;;;;;;;5.22;2.20;;;13.10;76.60;;;;;;5052147;28;20490;-71
2022/11/06 10:16:22;;;;;;;5.65;2.00;;;13.20;76.60;;;;;;5049050;28;20050;-71
2022/11/06 10:19:02;;;;;;;4.82;2.00;;;13.20;76.20;;;;;;5049770;28;20028;-71
2022/11/06 10:21:33;;;;;;;7.35;2.40;;;13.20;76.20;;;;;;5049840;28;20523;-71
2022/11/06 10:24:08;;;;;;;2.88;1.67;;;13.30;76.10;;;;;;5051143;28;20136;-71
2022/11/06 10:26:40;;;;;;;3.25;1.67;;;13.40;76.10;;;;;;5050032;28;20056;-70
2022/11/06 10:29:22;;;;;;;5.78;1.90;;;13.50;76.00;;;;;;5051611;28;20032;-71
2022/11/06 10:32:10;;;;;;;4.55;2.10;;;13.60;76.00;;;;;;5048255;28;20032;-71
2022/11/06 10:34:43;;;;;;;4.63;1.83;;;13.50;75.60;;;;;;5040328;28;20053;-71
2022/11/06 10:37:27;;;;;;;5.93;2.30;;;13.60;75.80;;;;;;5049086;28;20024;-70
2022/11/06 10:39:55;;;;;;;4.50;2.30;;;13.50;75.30;;;;;;5049807;28;20025;-70
2022/11/06 10:42:35;;;;;;;4.13;1.90;;;13.50;75.30;;;;;;5050191;28;20024;-71
2022/11/06 10:45:13;;;;;;;4.93;2.17;;;13.60;75.30;;;;;;5047503;28;20016;-70
2022/11/06 10:47:54;;;;;;;5.43;1.98;;;13.70;75.40;;;;;;5045463;28;20360;-70
2022/11/06 10:50:27;;;;;;;4.63;1.92;;;13.70;75.20;;;;;;5044130;28;20021;-71
2022/11/06 10:53:03;;;;;;;4.03;1.90;;;13.80;74.70;;;;;;5044836;28;20111;-70
2022/11/06 10:56:10;;;;;;;3.70;1.83;;;13.80;74.60;;;;;;5043594;28;20033;-71
2022/11/06 10:58:36;;;;;;;4.28;2.17;;;13.80;74.00;;;;;;4992987;28;20030;-71
2022/11/06 11:01:04;;;;;;;7.22;2.35;;;13.80;74.20;;;;;;4988375;28;20033;-71
2022/11/06 11:03:35;;;;;;;4.70;2.03;;;13.80;74.10;;;;;;5008525;28;20033;-71
2022/11/06 11:06:03;;;;;;;6.10;2.25;;;13.80;73.80;;;;;;5040502;28;20029;-71
2022/11/06 11:08:31;;;;;;;4.22;1.95;;;13.60;73.40;;;;;;5041937;28;20028;-71
2022/11/06 11:11:02;;;;;;;4.68;2.33;;;13.70;73.80;;;;;;5042477;28;20198;-70
2022/11/06 11:13:28;;;;;;;6.40;2.20;;;13.70;73.80;;;;;;5039223;28;20029;-70
2022/11/06 11:15:54;;;;;;;7.65;2.05;;;13.70;73.80;;;;;;5045348;28;20290;-70
2022/11/06 11:18:30;;;;;;;4.85;2.00;;;13.80;73.80;;;;;;5044227;28;20033;-70
2022/11/06 11:21:15;;;;;;;4.95;1.95;;;13.80;73.70;;;;;;5044704;28;20040;-69
2022/11/06 11:23:40;;;;;;;5.07;2.10;;;13.80;73.60;;;;;;5041579;28;20438;-69
2022/11/06 11:26:26;;;;;;;6.93;2.35;;;13.70;73.20;;;;;;5042918;28;20079;-69
2022/11/06 11:29:15;;;;;;;4.97;2.00;;;13.70;73.40;;;;;;5042770;28;20896;-69
2022/11/06 11:31:46;;;;;;;6.45;2.58;;;13.70;73.30;;;;;;5040654;28;20025;-70
2022/11/06 11:34:33;;;;;;;5.10;2.17;;;13.70;73.40;;;;;;5046153;28;20033;-69
2022/11/06 11:37:06;;;;;;;5.18;2.05;;;13.70;73.20;;;;;;5042516;28;20438;-70
2022/11/06 11:39:43;;;;;;;7.05;2.55;;;13.70;73.10;;;;;;5041298;28;20064;-70
2022/11/06 11:42:28;;;;;;;6.28;2.47;;;13.80;73.40;;;;;;5037141;28;20040;-69
2022/11/06 11:45:09;;;;;;;5.53;2.50;;;13.80;72.90;;;;;;5040411;28;20025;-69
2022/11/06 11:47:37;;;;;;;9.75;2.50;;;13.80;72.70;;;;;;5042318;28;20021;-69
2022/11/06 11:50:26;;;;;;;4.72;2.22;;;13.90;72.40;;;;;;5045232;28;20016;-69
2022/11/06 11:53:19;;;;;;;4.13;1.65;;;13.80;71.70;;;;;;5043438;28;20025;-69
2022/11/06 11:55:48;;;;;;;2.88;1.50;;;13.80;72.10;;;;;;5039453;28;20550;-69
2022/11/06 11:58:22;;;;;;;3.30;1.77;;;13.90;72.20;;;;;;5044287;28;20033;-70
2022/11/06 12:00:51;;;;;;;5.65;2.20;;;14.00;72.20;;;;;;5045693;28;20013;-68
2022/11/06 12:03:18;;;;;;;6.75;1.90;;;13.90;71.50;;;;;;5041191;28;20025;-70
2022/11/06 12:05:43;;;;;;;6.18;1.92;;;13.90;71.00;;;;;;5046287;28;20021;-68
2022/11/06 12:08:22;;;;;;;5.05;2.10;;;13.90;70.90;;;;;;5038558;28;20095;-68
2022/11/06 12:10:48;;;;;;;5.00;1.77;;;13.90;71.00;;;;;;5045309;28;20032;-69
2022/11/06 12:13:24;;;;;;;5.07;1.90;;;13.90;71.00;;;;;;5044375;28;20088;-69
2022/11/06 12:15:55;;;;;;;5.53;1.90;;;14.00;70.80;;;;;;5044954;28;20025;-68
2022/11/06 12:18:51;;;;;;;6.30;2.13;;;14.00;70.40;;;;;;5043599;28;20052;-69
2022/11/06 12:21:28;;;;;;;4.93;2.25;;;14.00;70.20;;;;;;5048577;28;20029;-69
2022/11/06 12:24:12;;;;;;;4.72;1.92;;;14.00;69.80;;;;;;5045941;28;20090;-68
2022/11/06 12:26:58;;;;;;;6.72;1.80;;;13.90;69.40;;;;;;5048525;28;20021;-68
2022/11/06 12:29:32;;;;;;;5.00;1.70;;;13.80;69.20;;;;;;5047449;28;20503;-68
2022/11/06 12:32:00;;;;;;;4.15;1.40;;;13.70;69.10;;;;;;5049586;28;20028;-69
2022/11/06 12:34:34;;;;;;;4.78;1.70;;;13.80;69.60;;;;;;5048771;28;20025;-68
2022/11/06 12:37:17;;;;;;;4.38;1.77;;;13.70;69.20;;;;;;5037345;28;20421;-69
2022/11/06 12:39:51;;;;;;;4.10;1.83;;;13.70;69.40;;;;;;5041868;28;21077;-68
2022/11/06 12:42:19;;;;;;;3.85;2.05;;;13.70;69.70;;;;;;5048016;28;20048;-69
2022/11/06 12:44:46;;;;;;;4.10;1.75;;;13.70;69.40;;;;;;5045938;28;20017;-68
2022/11/06 12:47:38;;;;;;;4.03;1.67;;;13.70;69.40;;;;;;5048738;28;20033;-69
2022/11/06 12:50:28;;;;;;;4.82;1.55;;;13.60;69.20;;;;;;5042465;28;20055;-69
2022/11/06 12:53:10;;;;;;;5.05;1.60;;;13.70;69.40;;;;;;5038124;28;20025;-68
2022/11/06 12:55:48;;;;;;;;;;;13.70;69.50;;;;;;5044394;28;20040;-69
2022/11/06 12:58:41;;;;;;;3.70;1.58;;;13.70;69.30;;;;;;5047154;28;19916;-68
2022/11/06 13:01:34;;;;;;;5.18;1.60;;;13.70;69.60;;;;;;5040668;28;20262;-69
2022/11/06 13:04:18;;;;;;;4.65;1.50;;;13.70;69.60;;;;;;5043390;28;20384;-69
2022/11/06 13:07:21;;;;;;;6.40;1.90;;;13.80;69.70;;;;;;5042852;28;20028;-69
2022/11/06 13:10:09;;;;;;;7.75;2.03;;;13.80;69.60;;;;;;5039002;28;20037;-69
2022/11/06 13:13:00;;;;;;;5.97;2.08;;;13.70;69.50;;;;;;5046307;28;20434;-69
2022/11/06 13:15:38;;;;;;;4.13;2.00;;;13.80;69.60;;;;;;5046583;28;20033;-70
2022/11/06 13:18:30;;;;;;;3.50;1.70;;;13.70;69.70;;;;;;5044892;28;20021;-70
2022/11/06 13:21:16;;;;;;;5.90;1.65;;;13.70;69.70;;;;;;5042650;28;20020;-68
2022/11/06 13:23:51;;;;;;;3.03;1.45;;;13.70;69.60;;;;;;5041557;28;20079;-70